sensor_id;sensor_type;location;lat;lon;timestamp;temperature;humidity
20066;DHT22;10193;48.884;9.182;2022-08-27T00:00:20;21.60;88.00
20066;DHT22;10193;48.884;9.182;2022-08-27T00:02:47;21.60;88.20
20066;DHT22;10193;48.884;9.182;2022-08-27T00:05:16;21.60;89.20
20066;DHT22;10193;48.884;9.182;2022-08-27T00:07:43;21.60;88.60
20066;DHT22;10193;48.884;9.182;2022-08-27T00:10:14;21.60;88.90
20066;DHT22;10193;48.884;9.182;2022-08-27T00:12:42;21.60;89.10
20066;DHT22;10193;48.884;9.182;2022-08-27T00:15:10;21.60;88.90
20066;DHT22;10193;48.884;9.182;2022-08-27T00:17:38;21.60;88.90
20066;DHT22;10193;48.884;9.182;2022-08-27T00:20:05;21.60;88.90
20066;DHT22;10193;48.884;9.182;2022-08-27T00:22:33;21.60;88.90
20066;DHT22;10193;48.884;9.182;2022-08-27T00:25:00;21.60;88.70
20066;DHT22;10193;48.884;9.182;2022-08-27T00:27:27;21.60;88.70
20066;DHT22;10193;48.884;9.182;2022-08-27T00:29:55;21.60;89.00
20066;DHT22;10193;48.884;9.182;2022-08-27T00:32:22;21.60;88.90
20066;DHT22;10193;48.884;9.182;2022-08-27T00:34:49;21.60;88.80
20066;DHT22;10193;48.884;9.182;2022-08-27T00:37:16;21.60;89.70
20066;DHT22;10193;48.884;9.182;2022-08-27T00:39:43;21.60;88.90
20066;DHT22;10193;48.884;9.182;2022-08-27T00:42:10;21.60;89.00
20066;DHT22;10193;48.884;9.182;2022-08-27T00:44:37;21.60;89.10
20066;DHT22;10193;48.884;9.182;2022-08-27T00:47:09;21.60;89.20
20066;DHT22;10193;48.884;9.182;2022-08-27T00:49:40;21.60;89.30
20066;DHT22;10193;48.884;9.182;2022-08-27T00:52:11;21.60;89.60
20066;DHT22;10193;48.884;9.182;2022-08-27T00:54:41;21.60;89.60
20066;DHT22;10193;48.884;9.182;2022-08-27T00:57:08;21.60;89.70
20066;DHT22;10193;48.884;9.182;2022-08-27T00:59:35;21.60;89.70
20066;DHT22;10193;48.884;9.182;2022-08-27T01:02:02;21.60;89.80
20066;DHT22;10193;48.884;9.182;2022-08-27T01:04:48;21.60;89.80
20066;DHT22;10193;48.884;9.182;2022-08-27T01:07:17;21.60;89.90
20066;DHT22;10193;48.884;9.182;2022-08-27T01:09:45;21.60;89.80
20066;DHT22;10193;48.884;9.182;2022-08-27T01:12:13;21.60;90.10
20066;DHT22;10193;48.884;9.182;2022-08-27T01:14:43;21.60;90.30
20066;DHT22;10193;48.884;9.182;2022-08-27T01:17:10;21.60;90.50
20066;DHT22;10193;48.884;9.182;2022-08-27T01:19:41;21.60;90.70
20066;DHT22;10193;48.884;9.182;2022-08-27T01:22:24;21.60;90.90
20066;DHT22;10193;48.884;9.182;2022-08-27T01:24:56;21.60;91.00
20066;DHT22;10193;48.884;9.182;2022-08-27T01:27:25;21.70;91.00
20066;DHT22;10193;48.884;9.182;2022-08-27T01:29:53;21.70;90.90
20066;DHT22;10193;48.884;9.182;2022-08-27T01:32:21;21.70;90.80
20066;DHT22;10193;48.884;9.182;2022-08-27T01:34:49;21.70;90.80
20066;DHT22;10193;48.884;9.182;2022-08-27T01:37:17;21.80;90.90
20066;DHT22;10193;48.884;9.182;2022-08-27T01:39:45;21.80;90.80
20066;DHT22;10193;48.884;9.182;2022-08-27T01:42:15;21.80;90.80
20066;DHT22;10193;48.884;9.182;2022-08-27T01:44:45;21.70;90.90
20066;DHT22;10193;48.884;9.182;2022-08-27T01:47:13;21.70;90.90
20066;DHT22;10193;48.884;9.182;2022-08-27T01:49:40;21.80;91.00
20066;DHT22;10193;48.884;9.182;2022-08-27T01:52:06;21.80;91.10
20066;DHT22;10193;48.884;9.182;2022-08-27T01:54:33;21.80;91.20
20066;DHT22;10193;48.884;9.182;2022-08-27T01:57:00;21.80;91.20
20066;DHT22;10193;48.884;9.182;2022-08-27T01:59:28;21.80;91.20
20066;DHT22;10193;48.884;9.182;2022-08-27T02:01:55;21.80;91.20
20066;DHT22;10193;48.884;9.182;2022-08-27T02:04:22;21.80;91.30
20066;DHT22;10193;48.884;9.182;2022-08-27T02:06:49;21.80;91.30
20066;DHT22;10193;48.884;9.182;2022-08-27T02:09:16;21.90;91.40
20066;DHT22;10193;48.884;9.182;2022-08-27T02:11:43;21.90;91.40
20066;DHT22;10193;48.884;9.182;2022-08-27T02:14:10;21.90;91.50
20066;DHT22;10193;48.884;9.182;2022-08-27T02:16:39;21.90;91.50
20066;DHT22;10193;48.884;9.182;2022-08-27T02:19:07;21.90;91.50
20066;DHT22;10193;48.884;9.182;2022-08-27T02:21:34;21.90;91.30
20066;DHT22;10193;48.884;9.182;2022-08-27T02:24:02;21.90;91.10
20066;DHT22;10193;48.884;9.182;2022-08-27T02:26:30;21.90;90.90
20066;DHT22;10193;48.884;9.182;2022-08-27T02:28:56;21.90;90.80
20066;DHT22;10193;48.884;9.182;2022-08-27T02:31:23;21.90;90.80
20066;DHT22;10193;48.884;9.182;2022-08-27T02:33:52;21.80;90.80
20066;DHT22;10193;48.884;9.182;2022-08-27T02:36:19;21.80;90.80
20066;DHT22;10193;48.884;9.182;2022-08-27T02:38:45;21.80;90.80
20066;DHT22;10193;48.884;9.182;2022-08-27T02:41:12;21.80;91.00
20066;DHT22;10193;48.884;9.182;2022-08-27T02:43:41;21.80;91.10
20066;DHT22;10193;48.884;9.182;2022-08-27T02:46:08;21.70;91.20
20066;DHT22;10193;48.884;9.182;2022-08-27T02:48:37;21.70;91.40
20066;DHT22;10193;48.884;9.182;2022-08-27T02:51:07;21.70;91.40
20066;DHT22;10193;48.884;9.182;2022-08-27T02:53:35;21.70;91.50
20066;DHT22;10193;48.884;9.182;2022-08-27T02:56:03;21.70;91.60
20066;DHT22;10193;48.884;9.182;2022-08-27T02:58:30;21.70;91.90
20066;DHT22;10193;48.884;9.182;2022-08-27T03:00:58;21.70;91.50
20066;DHT22;10193;48.884;9.182;2022-08-27T03:03:25;21.80;91.60
20066;DHT22;10193;48.884;9.182;2022-08-27T03:05:52;21.80;91.60
20066;DHT22;10193;48.884;9.182;2022-08-27T03:08:21;21.80;91.60
20066;DHT22;10193;48.884;9.182;2022-08-27T03:10:49;21.80;91.70
20066;DHT22;10193;48.884;9.182;2022-08-27T03:13:16;21.70;91.60
20066;DHT22;10193;48.884;9.182;2022-08-27T03:15:43;21.80;91.60
20066;DHT22;10193;48.884;9.182;2022-08-27T03:18:10;21.80;91.40
20066;DHT22;10193;48.884;9.182;2022-08-27T03:20:46;21.80;91.10
20066;DHT22;10193;48.884;9.182;2022-08-27T03:23:14;21.70;91.00
20066;DHT22;10193;48.884;9.182;2022-08-27T03:25:45;21.70;90.80
20066;DHT22;10193;48.884;9.182;2022-08-27T03:28:14;21.70;90.90
20066;DHT22;10193;48.884;9.182;2022-08-27T03:30:41;21.60;90.80
20066;DHT22;10193;48.884;9.182;2022-08-27T03:33:11;21.60;90.90
20066;DHT22;10193;48.884;9.182;2022-08-27T03:35:38;21.60;90.90
20066;DHT22;10193;48.884;9.182;2022-08-27T03:38:05;21.60;90.90
20066;DHT22;10193;48.884;9.182;2022-08-27T03:40:32;21.50;90.80
20066;DHT22;10193;48.884;9.182;2022-08-27T03:43:00;21.50;90.80
20066;DHT22;10193;48.884;9.182;2022-08-27T03:45:27;21.40;90.70
20066;DHT22;10193;48.884;9.182;2022-08-27T03:47:53;21.40;90.70
20066;DHT22;10193;48.884;9.182;2022-08-27T03:50:20;21.40;90.80
20066;DHT22;10193;48.884;9.182;2022-08-27T03:52:47;21.40;90.90
20066;DHT22;10193;48.884;9.182;2022-08-27T03:55:14;21.30;90.90
20066;DHT22;10193;48.884;9.182;2022-08-27T03:57:41;21.30;90.90
20066;DHT22;10193;48.884;9.182;2022-08-27T04:00:10;21.30;90.90
20066;DHT22;10193;48.884;9.182;2022-08-27T04:02:39;21.20;91.10
20066;DHT22;10193;48.884;9.182;2022-08-27T04:05:08;21.20;91.10
20066;DHT22;10193;48.884;9.182;2022-08-27T04:07:35;21.20;91.10
20066;DHT22;10193;48.884;9.182;2022-08-27T04:10:03;21.20;91.10
20066;DHT22;10193;48.884;9.182;2022-08-27T04:12:30;21.20;91.10
20066;DHT22;10193;48.884;9.182;2022-08-27T04:14:57;21.20;91.20
20066;DHT22;10193;48.884;9.182;2022-08-27T04:17:25;21.20;91.20
20066;DHT22;10193;48.884;9.182;2022-08-27T04:19:52;21.10;91.20
20066;DHT22;10193;48.884;9.182;2022-08-27T04:22:19;21.10;91.20
20066;DHT22;10193;48.884;9.182;2022-08-27T04:24:46;21.10;91.30
20066;DHT22;10193;48.884;9.182;2022-08-27T04:27:13;21.10;91.40
20066;DHT22;10193;48.884;9.182;2022-08-27T04:29:47;21.10;91.50
20066;DHT22;10193;48.884;9.182;2022-08-27T04:32:14;21.10;91.60
20066;DHT22;10193;48.884;9.182;2022-08-27T04:34:42;21.10;91.60
20066;DHT22;10193;48.884;9.182;2022-08-27T04:37:09;21.10;91.60
20066;DHT22;10193;48.884;9.182;2022-08-27T04:39:36;21.10;91.70
20066;DHT22;10193;48.884;9.182;2022-08-27T04:42:05;21.10;91.80
20066;DHT22;10193;48.884;9.182;2022-08-27T04:44:32;21.10;91.80
20066;DHT22;10193;48.884;9.182;2022-08-27T04:47:02;21.10;91.80
20066;DHT22;10193;48.884;9.182;2022-08-27T04:49:29;21.10;91.90
20066;DHT22;10193;48.884;9.182;2022-08-27T04:51:58;21.10;91.90
20066;DHT22;10193;48.884;9.182;2022-08-27T04:54:25;21.10;92.10
20066;DHT22;10193;48.884;9.182;2022-08-27T04:56:52;21.10;92.40
20066;DHT22;10193;48.884;9.182;2022-08-27T04:59:19;21.20;92.10
20066;DHT22;10193;48.884;9.182;2022-08-27T05:01:46;21.20;92.20
20066;DHT22;10193;48.884;9.182;2022-08-27T05:04:14;21.20;92.30
20066;DHT22;10193;48.884;9.182;2022-08-27T05:06:43;21.20;92.20
20066;DHT22;10193;48.884;9.182;2022-08-27T05:09:13;21.20;92.20
20066;DHT22;10193;48.884;9.182;2022-08-27T05:11:40;21.20;92.20
20066;DHT22;10193;48.884;9.182;2022-08-27T05:14:09;21.20;92.20
20066;DHT22;10193;48.884;9.182;2022-08-27T05:16:37;21.30;92.30
20066;DHT22;10193;48.884;9.182;2022-08-27T05:19:06;21.30;92.40
20066;DHT22;10193;48.884;9.182;2022-08-27T05:21:35;21.30;92.50
20066;DHT22;10193;48.884;9.182;2022-08-27T05:24:04;21.30;92.60
20066;DHT22;10193;48.884;9.182;2022-08-27T05:26:34;21.40;92.70
20066;DHT22;10193;48.884;9.182;2022-08-27T05:29:02;21.40;92.70
20066;DHT22;10193;48.884;9.182;2022-08-27T05:31:29;21.40;92.80
20066;DHT22;10193;48.884;9.182;2022-08-27T05:33:56;21.40;92.80
20066;DHT22;10193;48.884;9.182;2022-08-27T05:36:24;21.40;92.80
20066;DHT22;10193;48.884;9.182;2022-08-27T05:38:52;21.50;92.70
20066;DHT22;10193;48.884;9.182;2022-08-27T05:41:22;21.50;92.60
20066;DHT22;10193;48.884;9.182;2022-08-27T05:43:54;21.50;92.50
20066;DHT22;10193;48.884;9.182;2022-08-27T05:46:23;21.50;92.50
20066;DHT22;10193;48.884;9.182;2022-08-27T05:48:54;21.50;92.60
20066;DHT22;10193;48.884;9.182;2022-08-27T05:51:22;21.50;92.70
20066;DHT22;10193;48.884;9.182;2022-08-27T05:53:49;21.50;92.90
20066;DHT22;10193;48.884;9.182;2022-08-27T05:56:17;21.60;92.90
20066;DHT22;10193;48.884;9.182;2022-08-27T05:58:45;21.60;92.70
20066;DHT22;10193;48.884;9.182;2022-08-27T06:01:34;21.50;92.40
20066;DHT22;10193;48.884;9.182;2022-08-27T06:04:01;21.60;92.80
20066;DHT22;10193;48.884;9.182;2022-08-27T06:06:28;21.60;92.50
20066;DHT22;10193;48.884;9.182;2022-08-27T06:08:55;21.60;92.40
20066;DHT22;10193;48.884;9.182;2022-08-27T06:11:22;21.60;92.40
20066;DHT22;10193;48.884;9.182;2022-08-27T06:13:49;21.60;92.40
20066;DHT22;10193;48.884;9.182;2022-08-27T06:16:18;21.50;92.40
20066;DHT22;10193;48.884;9.182;2022-08-27T06:18:47;21.60;92.40
20066;DHT22;10193;48.884;9.182;2022-08-27T06:21:15;21.60;92.40
20066;DHT22;10193;48.884;9.182;2022-08-27T06:23:42;21.60;92.40
20066;DHT22;10193;48.884;9.182;2022-08-27T06:26:12;21.60;92.40
20066;DHT22;10193;48.884;9.182;2022-08-27T06:28:39;21.60;92.50
20066;DHT22;10193;48.884;9.182;2022-08-27T06:31:08;21.60;92.60
20066;DHT22;10193;48.884;9.182;2022-08-27T06:33:36;21.60;92.70
20066;DHT22;10193;48.884;9.182;2022-08-27T06:36:07;21.60;92.80
20066;DHT22;10193;48.884;9.182;2022-08-27T06:38:35;21.70;92.90
20066;DHT22;10193;48.884;9.182;2022-08-27T06:41:02;21.70;93.30
20066;DHT22;10193;48.884;9.182;2022-08-27T06:43:30;21.80;92.90
20066;DHT22;10193;48.884;9.182;2022-08-27T06:45:56;21.80;92.70
20066;DHT22;10193;48.884;9.182;2022-08-27T06:48:27;21.80;93.00
20066;DHT22;10193;48.884;9.182;2022-08-27T06:50:53;21.80;92.50
20066;DHT22;10193;48.884;9.182;2022-08-27T06:53:22;21.90;92.50
20066;DHT22;10193;48.884;9.182;2022-08-27T06:55:49;21.90;92.30
20066;DHT22;10193;48.884;9.182;2022-08-27T06:58:17;21.90;92.10
20066;DHT22;10193;48.884;9.182;2022-08-27T07:00:45;22.00;92.00
20066;DHT22;10193;48.884;9.182;2022-08-27T07:03:11;21.90;91.90
20066;DHT22;10193;48.884;9.182;2022-08-27T07:05:39;22.00;92.30
20066;DHT22;10193;48.884;9.182;2022-08-27T07:08:07;22.00;92.00
20066;DHT22;10193;48.884;9.182;2022-08-27T07:10:35;22.00;91.90
20066;DHT22;10193;48.884;9.182;2022-08-27T07:13:03;22.00;91.80
20066;DHT22;10193;48.884;9.182;2022-08-27T07:15:30;22.10;91.90
20066;DHT22;10193;48.884;9.182;2022-08-27T07:17:57;22.10;91.90
20066;DHT22;10193;48.884;9.182;2022-08-27T07:20:24;22.10;91.80
20066;DHT22;10193;48.884;9.182;2022-08-27T07:22:51;22.10;91.80
20066;DHT22;10193;48.884;9.182;2022-08-27T07:25:19;22.10;91.90
20066;DHT22;10193;48.884;9.182;2022-08-27T07:27:48;22.10;91.90
20066;DHT22;10193;48.884;9.182;2022-08-27T07:30:15;22.10;91.90
20066;DHT22;10193;48.884;9.182;2022-08-27T07:32:43;22.20;91.90
20066;DHT22;10193;48.884;9.182;2022-08-27T07:35:10;22.20;91.90
20066;DHT22;10193;48.884;9.182;2022-08-27T07:37:38;22.20;91.90
20066;DHT22;10193;48.884;9.182;2022-08-27T07:40:08;22.20;91.90
20066;DHT22;10193;48.884;9.182;2022-08-27T07:42:35;22.30;91.80
20066;DHT22;10193;48.884;9.182;2022-08-27T07:45:21;22.30;91.70
20066;DHT22;10193;48.884;9.182;2022-08-27T07:47:48;22.40;91.60
20066;DHT22;10193;48.884;9.182;2022-08-27T07:50:16;22.40;91.60
20066;DHT22;10193;48.884;9.182;2022-08-27T07:52:43;22.40;91.30
20066;DHT22;10193;48.884;9.182;2022-08-27T07:55:10;22.40;91.30
20066;DHT22;10193;48.884;9.182;2022-08-27T07:57:37;22.40;91.10
20066;DHT22;10193;48.884;9.182;2022-08-27T08:00:06;22.40;91.10
20066;DHT22;10193;48.884;9.182;2022-08-27T08:02:35;22.40;90.90
20066;DHT22;10193;48.884;9.182;2022-08-27T08:05:04;22.40;90.70
20066;DHT22;10193;48.884;9.182;2022-08-27T08:07:33;22.40;90.80
20066;DHT22;10193;48.884;9.182;2022-08-27T08:10:04;22.30;91.10
20066;DHT22;10193;48.884;9.182;2022-08-27T08:12:31;22.30;90.80
20066;DHT22;10193;48.884;9.182;2022-08-27T08:14:58;22.30;90.80
20066;DHT22;10193;48.884;9.182;2022-08-27T08:17:24;22.30;90.90
20066;DHT22;10193;48.884;9.182;2022-08-27T08:19:55;22.30;91.00
20066;DHT22;10193;48.884;9.182;2022-08-27T08:22:22;22.30;91.00
20066;DHT22;10193;48.884;9.182;2022-08-27T08:24:48;22.30;91.10
20066;DHT22;10193;48.884;9.182;2022-08-27T08:27:16;22.30;91.10
20066;DHT22;10193;48.884;9.182;2022-08-27T08:29:44;22.30;91.10
20066;DHT22;10193;48.884;9.182;2022-08-27T08:32:10;22.30;90.70
20066;DHT22;10193;48.884;9.182;2022-08-27T08:34:37;22.30;90.20
20066;DHT22;10193;48.884;9.182;2022-08-27T08:37:06;22.20;90.00
20066;DHT22;10193;48.884;9.182;2022-08-27T08:39:34;22.10;90.00
20066;DHT22;10193;48.884;9.182;2022-08-27T08:42:04;22.10;90.00
20066;DHT22;10193;48.884;9.182;2022-08-27T08:44:34;22.00;90.10
20066;DHT22;10193;48.884;9.182;2022-08-27T08:47:07;21.90;90.40
20066;DHT22;10193;48.884;9.182;2022-08-27T08:49:42;21.80;90.60
20066;DHT22;10193;48.884;9.182;2022-08-27T08:52:25;21.80;90.60
20066;DHT22;10193;48.884;9.182;2022-08-27T08:55:02;21.70;91.00
20066;DHT22;10193;48.884;9.182;2022-08-27T08:57:35;21.70;91.40
20066;DHT22;10193;48.884;9.182;2022-08-27T09:00:07;21.60;91.80
20066;DHT22;10193;48.884;9.182;2022-08-27T09:02:36;21.60;92.10
20066;DHT22;10193;48.884;9.182;2022-08-27T09:05:05;21.60;92.40
20066;DHT22;10193;48.884;9.182;2022-08-27T09:07:40;21.50;92.60
20066;DHT22;10193;48.884;9.182;2022-08-27T09:10:14;21.50;93.10
20066;DHT22;10193;48.884;9.182;2022-08-27T09:12:44;21.50;93.50
20066;DHT22;10193;48.884;9.182;2022-08-27T09:15:13;21.50;93.60
20066;DHT22;10193;48.884;9.182;2022-08-27T09:17:42;21.50;93.50
20066;DHT22;10193;48.884;9.182;2022-08-27T09:20:10;21.50;93.60
20066;DHT22;10193;48.884;9.182;2022-08-27T09:22:46;21.50;93.80
20066;DHT22;10193;48.884;9.182;2022-08-27T09:25:19;21.50;94.20
20066;DHT22;10193;48.884;9.182;2022-08-27T09:27:47;21.50;94.10
20066;DHT22;10193;48.884;9.182;2022-08-27T09:30:19;21.50;94.10
20066;DHT22;10193;48.884;9.182;2022-08-27T09:32:52;21.50;94.10
20066;DHT22;10193;48.884;9.182;2022-08-27T09:35:22;21.50;94.20
20066;DHT22;10193;48.884;9.182;2022-08-27T09:37:54;21.40;94.10
20066;DHT22;10193;48.884;9.182;2022-08-27T09:40:26;21.50;94.80
20066;DHT22;10193;48.884;9.182;2022-08-27T09:42:56;21.50;95.30
20066;DHT22;10193;48.884;9.182;2022-08-27T09:45:24;21.50;95.70
20066;DHT22;10193;48.884;9.182;2022-08-27T09:47:54;21.50;95.70
20066;DHT22;10193;48.884;9.182;2022-08-27T09:50:27;21.50;95.40
20066;DHT22;10193;48.884;9.182;2022-08-27T09:52:58;21.50;96.10
20066;DHT22;10193;48.884;9.182;2022-08-27T09:55:31;21.40;96.10
20066;DHT22;10193;48.884;9.182;2022-08-27T09:58:02;21.50;96.50
20066;DHT22;10193;48.884;9.182;2022-08-27T10:00:34;21.50;96.30
20066;DHT22;10193;48.884;9.182;2022-08-27T10:03:03;21.50;96.50
20066;DHT22;10193;48.884;9.182;2022-08-27T10:05:36;21.50;96.20
20066;DHT22;10193;48.884;9.182;2022-08-27T10:08:09;21.50;96.80
20066;DHT22;10193;48.884;9.182;2022-08-27T10:10:43;21.50;96.90
20066;DHT22;10193;48.884;9.182;2022-08-27T10:13:15;21.60;97.20
20066;DHT22;10193;48.884;9.182;2022-08-27T10:15:51;21.60;97.50
20066;DHT22;10193;48.884;9.182;2022-08-27T10:18:25;21.60;97.80
20066;DHT22;10193;48.884;9.182;2022-08-27T10:21:02;21.70;97.50
20066;DHT22;10193;48.884;9.182;2022-08-27T10:23:36;21.60;97.80
20066;DHT22;10193;48.884;9.182;2022-08-27T10:26:08;21.70;98.00
20066;DHT22;10193;48.884;9.182;2022-08-27T10:28:48;21.70;98.40
20066;DHT22;10193;48.884;9.182;2022-08-27T10:31:25;21.80;98.80
20066;DHT22;10193;48.884;9.182;2022-08-27T10:34:11;21.80;99.20
20066;DHT22;10193;48.884;9.182;2022-08-27T10:36:50;21.90;99.40
20066;DHT22;10193;48.884;9.182;2022-08-27T10:39:31;21.90;99.80
20066;DHT22;10193;48.884;9.182;2022-08-27T10:42:12;22.00;99.00
20066;DHT22;10193;48.884;9.182;2022-08-27T10:44:58;22.10;99.30
20066;DHT22;10193;48.884;9.182;2022-08-27T10:47:47;22.20;99.20
20066;DHT22;10193;48.884;9.182;2022-08-27T10:50:25;22.20;98.80
20066;DHT22;10193;48.884;9.182;2022-08-27T10:52:56;22.20;98.70
20066;DHT22;10193;48.884;9.182;2022-08-27T10:55:29;22.30;99.00
20066;DHT22;10193;48.884;9.182;2022-08-27T10:58:25;22.30;98.70
20066;DHT22;10193;48.884;9.182;2022-08-27T11:01:00;22.30;98.60
20066;DHT22;10193;48.884;9.182;2022-08-27T11:03:33;22.30;97.60
20066;DHT22;10193;48.884;9.182;2022-08-27T11:06:04;22.30;97.30
20066;DHT22;10193;48.884;9.182;2022-08-27T11:08:39;22.30;97.40
20066;DHT22;10193;48.884;9.182;2022-08-27T11:11:11;22.30;97.40
20066;DHT22;10193;48.884;9.182;2022-08-27T11:13:46;22.30;97.70
20066;DHT22;10193;48.884;9.182;2022-08-27T11:16:17;22.30;98.00
20066;DHT22;10193;48.884;9.182;2022-08-27T11:18:48;22.40;97.80
20066;DHT22;10193;48.884;9.182;2022-08-27T11:21:21;22.40;98.20
20066;DHT22;10193;48.884;9.182;2022-08-27T11:23:53;22.40;98.00
20066;DHT22;10193;48.884;9.182;2022-08-27T11:26:24;22.40;98.40
20066;DHT22;10193;48.884;9.182;2022-08-27T11:28:54;22.40;99.20
20066;DHT22;10193;48.884;9.182;2022-08-27T11:31:38;22.50;99.80
20066;DHT22;10193;48.884;9.182;2022-08-27T11:34:14;22.50;99.90
20066;DHT22;10193;48.884;9.182;2022-08-27T11:37:09;22.60;99.90
20066;DHT22;10193;48.884;9.182;2022-08-27T11:40:10;22.60;99.90
20066;DHT22;10193;48.884;9.182;2022-08-27T11:42:47;22.70;99.50
20066;DHT22;10193;48.884;9.182;2022-08-27T11:45:17;22.80;99.50
20066;DHT22;10193;48.884;9.182;2022-08-27T11:47:52;22.80;98.80
20066;DHT22;10193;48.884;9.182;2022-08-27T11:50:21;22.80;98.60
20066;DHT22;10193;48.884;9.182;2022-08-27T11:52:57;22.90;98.60
20066;DHT22;10193;48.884;9.182;2022-08-27T11:55:30;22.90;98.40
20066;DHT22;10193;48.884;9.182;2022-08-27T11:58:22;22.90;98.70
20066;DHT22;10193;48.884;9.182;2022-08-27T12:00:50;22.90;98.60
20066;DHT22;10193;48.884;9.182;2022-08-27T12:03:28;22.90;98.80
20066;DHT22;10193;48.884;9.182;2022-08-27T12:06:17;23.00;98.50
20066;DHT22;10193;48.884;9.182;2022-08-27T12:08:44;23.00;98.50
20066;DHT22;10193;48.884;9.182;2022-08-27T12:11:29;23.00;98.40
20066;DHT22;10193;48.884;9.182;2022-08-27T12:14:13;23.00;98.40
20066;DHT22;10193;48.884;9.182;2022-08-27T12:16:45;23.00;99.20
20066;DHT22;10193;48.884;9.182;2022-08-27T12:19:26;23.10;99.90
20066;DHT22;10193;48.884;9.182;2022-08-27T12:22:12;23.10;99.90
20066;DHT22;10193;48.884;9.182;2022-08-27T12:24:48;23.10;99.90
20066;DHT22;10193;48.884;9.182;2022-08-27T12:27:29;23.20;99.90
20066;DHT22;10193;48.884;9.182;2022-08-27T12:30:04;23.30;99.90
20066;DHT22;10193;48.884;9.182;2022-08-27T12:32:35;23.40;99.90
20066;DHT22;10193;48.884;9.182;2022-08-27T12:35:14;23.50;99.70
20066;DHT22;10193;48.884;9.182;2022-08-27T12:37:43;23.50;99.30
20066;DHT22;10193;48.884;9.182;2022-08-27T12:40:19;23.50;99.60
20066;DHT22;10193;48.884;9.182;2022-08-27T12:42:47;23.50;98.90
20066;DHT22;10193;48.884;9.182;2022-08-27T12:45:20;23.60;97.90
20066;DHT22;10193;48.884;9.182;2022-08-27T12:47:49;23.60;97.00
20066;DHT22;10193;48.884;9.182;2022-08-27T12:50:21;23.60;97.20
20066;DHT22;10193;48.884;9.182;2022-08-27T12:55:56;23.50;97.20
20066;DHT22;10193;48.884;9.182;2022-08-27T12:58:35;23.60;97.80
20066;DHT22;10193;48.884;9.182;2022-08-27T13:01:19;23.60;98.10
20066;DHT22;10193;48.884;9.182;2022-08-27T13:03:50;23.60;98.10
20066;DHT22;10193;48.884;9.182;2022-08-27T13:06:21;23.70;99.00
20066;DHT22;10193;48.884;9.182;2022-08-27T13:08:53;23.70;98.80
20066;DHT22;10193;48.884;9.182;2022-08-27T13:11:22;23.70;98.90
20066;DHT22;10193;48.884;9.182;2022-08-27T13:13:50;23.70;98.90
20066;DHT22;10193;48.884;9.182;2022-08-27T13:16:19;23.80;99.30
20066;DHT22;10193;48.884;9.182;2022-08-27T13:18:48;23.90;99.60
20066;DHT22;10193;48.884;9.182;2022-08-27T13:21:20;23.90;99.00
20066;DHT22;10193;48.884;9.182;2022-08-27T13:23:52;23.90;98.30
20066;DHT22;10193;48.884;9.182;2022-08-27T13:26:22;24.00;98.80
20066;DHT22;10193;48.884;9.182;2022-08-27T13:28:50;24.00;99.50
20066;DHT22;10193;48.884;9.182;2022-08-27T13:31:19;24.10;99.60
20066;DHT22;10193;48.884;9.182;2022-08-27T13:33:47;24.10;99.20
20066;DHT22;10193;48.884;9.182;2022-08-27T13:36:25;24.20;99.10
20066;DHT22;10193;48.884;9.182;2022-08-27T13:38:53;24.20;98.10
20066;DHT22;10193;48.884;9.182;2022-08-27T13:41:26;24.30;98.70
20066;DHT22;10193;48.884;9.182;2022-08-27T13:43:54;24.40;98.70
20066;DHT22;10193;48.884;9.182;2022-08-27T13:46:25;24.40;98.70
20066;DHT22;10193;48.884;9.182;2022-08-27T13:48:55;24.40;98.60
20066;DHT22;10193;48.884;9.182;2022-08-27T13:51:25;24.40;98.80
20066;DHT22;10193;48.884;9.182;2022-08-27T13:53:53;24.50;98.90
20066;DHT22;10193;48.884;9.182;2022-08-27T13:56:39;24.50;98.80
20066;DHT22;10193;48.884;9.182;2022-08-27T13:59:08;24.50;98.70
20066;DHT22;10193;48.884;9.182;2022-08-27T14:01:37;24.60;98.70
20066;DHT22;10193;48.884;9.182;2022-08-27T14:04:06;24.60;98.50
20066;DHT22;10193;48.884;9.182;2022-08-27T14:06:39;24.60;98.30
20066;DHT22;10193;48.884;9.182;2022-08-27T14:09:14;24.60;97.50
20066;DHT22;10193;48.884;9.182;2022-08-27T14:11:43;24.60;97.50
20066;DHT22;10193;48.884;9.182;2022-08-27T14:14:11;24.60;98.30
20066;DHT22;10193;48.884;9.182;2022-08-27T14:16:39;24.70;98.30
20066;DHT22;10193;48.884;9.182;2022-08-27T14:19:09;24.70;98.00
20066;DHT22;10193;48.884;9.182;2022-08-27T14:21:38;24.70;98.10
20066;DHT22;10193;48.884;9.182;2022-08-27T14:24:06;24.70;98.10
20066;DHT22;10193;48.884;9.182;2022-08-27T14:26:33;24.70;98.00
20066;DHT22;10193;48.884;9.182;2022-08-27T14:29:00;24.70;98.10
20066;DHT22;10193;48.884;9.182;2022-08-27T14:31:27;24.70;98.20
20066;DHT22;10193;48.884;9.182;2022-08-27T14:33:56;24.70;98.20
20066;DHT22;10193;48.884;9.182;2022-08-27T14:36:25;24.70;98.20
20066;DHT22;10193;48.884;9.182;2022-08-27T14:38:52;24.80;98.40
20066;DHT22;10193;48.884;9.182;2022-08-27T14:41:20;24.80;98.40
20066;DHT22;10193;48.884;9.182;2022-08-27T14:43:47;24.80;98.40
20066;DHT22;10193;48.884;9.182;2022-08-27T14:46:20;24.80;98.30
20066;DHT22;10193;48.884;9.182;2022-08-27T14:48:48;24.80;97.50
20066;DHT22;10193;48.884;9.182;2022-08-27T14:51:22;24.90;97.90
20066;DHT22;10193;48.884;9.182;2022-08-27T14:53:50;24.90;97.30
20066;DHT22;10193;48.884;9.182;2022-08-27T14:56:17;24.90;97.30
20066;DHT22;10193;48.884;9.182;2022-08-27T14:58:44;24.90;97.20
20066;DHT22;10193;48.884;9.182;2022-08-27T15:01:11;24.90;97.00
20066;DHT22;10193;48.884;9.182;2022-08-27T15:03:42;24.90;96.60
20066;DHT22;10193;48.884;9.182;2022-08-27T15:06:10;24.90;96.80
20066;DHT22;10193;48.884;9.182;2022-08-27T15:08:39;24.90;97.80
20066;DHT22;10193;48.884;9.182;2022-08-27T15:11:07;24.90;98.40
20066;DHT22;10193;48.884;9.182;2022-08-27T15:13:38;25.00;98.80
20066;DHT22;10193;48.884;9.182;2022-08-27T15:16:05;25.00;98.60
20066;DHT22;10193;48.884;9.182;2022-08-27T15:18:32;25.00;99.00
20066;DHT22;10193;48.884;9.182;2022-08-27T15:20:59;25.10;99.40
20066;DHT22;10193;48.884;9.182;2022-08-27T15:23:25;25.10;99.50
20066;DHT22;10193;48.884;9.182;2022-08-27T15:25:54;25.20;99.30
20066;DHT22;10193;48.884;9.182;2022-08-27T15:28:21;25.30;99.20
20066;DHT22;10193;48.884;9.182;2022-08-27T15:30:47;25.30;99.90
20066;DHT22;10193;48.884;9.182;2022-08-27T15:33:14;25.40;99.70
20066;DHT22;10193;48.884;9.182;2022-08-27T15:35:41;25.40;99.30
20066;DHT22;10193;48.884;9.182;2022-08-27T15:38:08;25.40;99.00
20066;DHT22;10193;48.884;9.182;2022-08-27T15:40:35;25.50;98.70
20066;DHT22;10193;48.884;9.182;2022-08-27T15:43:05;25.50;98.40
20066;DHT22;10193;48.884;9.182;2022-08-27T15:45:32;25.50;97.20
20066;DHT22;10193;48.884;9.182;2022-08-27T15:48:01;25.50;96.30
20066;DHT22;10193;48.884;9.182;2022-08-27T15:50:29;25.50;95.90